Time;durP1;ratioP1;P1;durP2;ratioP2;P2;SDS_P1;SDS_P2;PMS_P1;PMS_P2;Temp;Humidity;BMP_temperature;BMP_pressure;BME280_temperature;BME280_humidity;BME280_pressure;Samples;Min_cycle;Max_cycle;Signal;HPM_P1;HPM_P2
2022/10/23 00:02:08;;;;;;;11.73;7.85;;;;;;;11.73;83.04;100529.80;1612628;89;21225;-79
2022/10/23 00:05:12;;;;;;;9.70;6.58;;;;;;;11.51;83.96;100536.05;1612661;88;21222;-79
2022/10/23 00:08:21;;;;;;;8.03;6.10;;;;;;;11.43;84.36;100531.47;1612682;89;21282;-79
2022/10/23 00:11:31;;;;;;;8.03;6.03;;;;;;;11.56;84.01;100525.92;1611523;89;21265;-79
2022/10/23 00:14:37;;;;;;;8.95;6.37;;;;;;;11.61;83.94;100524.36;1612806;89;21217;-79
2022/10/23 00:17:43;;;;;;;9.20;6.00;;;;;;;11.74;83.52;100522.42;1612585;89;21233;-79
2022/10/23 00:20:49;;;;;;;9.80;6.00;;;;;;;11.90;83.12;100523.77;1611370;88;21265;-78
2022/10/23 00:23:56;;;;;;;15.83;6.60;;;;;;;12.00;82.34;100516.68;1611355;89;21847;-78
2022/10/23 00:27:02;;;;;;;9.23;6.40;;;;;;;11.99;82.41;100520.42;1612634;89;21245;-78
2022/10/23 00:30:08;;;;;;;12.93;8.03;;;;;;;11.93;82.66;100511.56;1612281;89;21320;-79
2022/10/23 00:33:14;;;;;;;17.50;12.90;;;;;;;11.82;83.13;100504.61;1612602;89;21241;-78
2022/10/23 00:36:21;;;;;;;18.52;13.78;;;;;;;11.67;84.07;100505.01;1612536;89;21280;-78
2022/10/23 00:39:27;;;;;;;19.40;12.15;;;;;;;11.94;83.05;100499.56;1612811;89;21233;-78
2022/10/23 00:42:33;;;;;;;11.97;7.87;;;;;;;11.85;83.36;100498.75;1612905;89;21233;-78
2022/10/23 00:45:40;;;;;;;7.25;5.40;;;;;;;11.84;83.50;100492.94;1611594;89;21241;-78
2022/10/23 00:48:46;;;;;;;9.08;4.58;;;;;;;11.83;83.55;100488.50;1612662;89;21229;-78
2022/10/23 00:51:57;;;;;;;8.53;4.40;;;;;;;11.85;83.40;100484.20;1611416;88;21586;-78
2022/10/23 00:55:02;;;;;;;6.75;4.72;;;;;;;11.52;84.80;100482.44;1611601;89;21784;-78
2022/10/23 00:58:08;;;;;;;8.13;4.87;;;;;;;11.48;85.55;100475.64;1612608;89;21788;-78
2022/10/23 01:01:28;;;;;;;5.80;3.95;;;;;;;11.73;84.99;100465.92;1612080;89;21798;-78
2022/10/23 01:04:34;;;;;;;6.90;4.47;;;;;;;11.65;84.86;100459.11;1612682;89;21257;-78
2022/10/23 01:07:59;;;;;;;6.60;3.55;;;;;;;11.73;84.97;100456.33;1612001;89;21268;-78
2022/10/23 01:11:11;;;;;;;7.10;4.75;;;;;;;11.66;85.22;100449.33;1612239;89;21321;-79
2022/10/23 01:14:30;;;;;;;5.80;4.20;;;;;;;11.74;85.12;100451.17;1612603;89;21780;-78
2022/10/23 01:17:46;;;;;;;8.68;5.45;;;;;;;11.81;84.89;100448.55;1612589;89;21311;-78
2022/10/23 01:20:57;;;;;;;9.38;5.67;;;;;;;11.90;84.69;100440.65;1612358;89;21225;-78
2022/10/23 01:24:18;;;;;;;8.28;5.17;;;;;;;12.12;83.66;100440.33;1613120;89;21471;-78
2022/10/23 01:27:32;;;;;;;6.17;4.40;;;;;;;12.14;83.35;100428.64;1614379;89;21243;-78
2022/10/23 01:30:37;;;;;;;6.78;3.40;;;;;;;12.26;82.77;100420.33;1614352;89;21316;-79
2022/10/23 01:33:49;;;;;;;7.28;4.00;;;;;;;12.30;82.68;100418.08;1614418;89;21905;-78
2022/10/23 01:36:55;;;;;;;7.10;4.67;;;;;;;12.27;82.65;100420.13;1614367;88;21254;-79
2022/10/23 01:40:06;;;;;;;6.92;4.40;;;;;;;12.26;82.53;100412.11;1613090;89;21229;-78
2022/10/23 01:43:20;;;;;;;10.63;6.17;;;;;;;11.86;84.25;100404.55;1614657;89;21277;-78
2022/10/23 01:46:25;;;;;;;14.43;5.53;;;;;;;12.08;83.94;100404.20;1614434;89;21245;-78
2022/10/23 01:49:31;;;;;;;8.93;5.12;;;;;;;12.15;83.30;100397.47;1614498;89;21226;-78
2022/10/23 01:52:37;;;;;;;5.85;3.67;;;;;;;12.24;83.42;100388.14;1613413;88;21276;-78
2022/10/23 01:55:43;;;;;;;4.87;3.40;;;;;;;12.12;83.40;100378.64;1613236;89;21301;-78
2022/10/23 01:58:52;;;;;;;7.08;3.40;;;;;;;12.25;83.17;100374.23;1614464;89;21229;-78
2022/10/23 02:02:01;;;;;;;4.70;2.75;;;;;;;12.12;83.52;100376.74;1613835;89;21244;-78
2022/10/23 02:05:15;;;;;;;8.40;3.95;;;;;;;12.17;83.20;100374.82;1614774;89;21597;-78
2022/10/23 02:08:21;;;;;;;5.37;3.65;;;;;;;12.06;83.83;100370.64;1613968;88;21268;-78
2022/10/23 02:11:28;;;;;;;5.15;3.33;;;;;;;12.07;84.22;100374.23;1614178;89;21269;-79
2022/10/23 02:14:46;;;;;;;3.55;2.80;;;;;;;12.11;84.28;100371.45;1614398;89;21213;-78
2022/10/23 02:18:12;;;;;;;6.45;2.92;;;;;;;12.45;83.07;100374.55;1614400;89;21241;-78
2022/10/23 02:21:22;;;;;;;14.40;3.60;;;;;;;12.57;82.79;100371.36;1614422;89;21245;-79
2022/10/23 02:24:40;;;;;;;4.70;2.95;;;;;;;12.56;82.67;100365.52;1613011;88;21269;-79
2022/10/23 02:27:53;;;;;;;7.25;2.92;;;;;;;12.57;82.60;100363.13;1612802;89;21857;-79
2022/10/23 02:31:00;;;;;;;9.20;3.75;;;;;;;12.57;82.27;100366.73;1612822;89;21222;-79
2022/10/23 02:34:06;;;;;;;6.55;3.22;;;;;;;12.23;84.30;100363.10;1611498;89;21237;-79
2022/10/23 02:37:11;;;;;;;5.40;3.62;;;;;;;12.14;84.57;100358.23;1612616;89;21229;-79
2022/10/23 02:40:18;;;;;;;6.45;3.83;;;;;;;12.48;83.56;100360.47;1612684;89;21277;-79
2022/10/23 02:43:29;;;;;;;7.10;3.55;;;;;;;12.41;83.89;100355.37;1611554;89;21540;-79
2022/10/23 02:47:02;;;;;;;;;;;;;;;12.52;83.56;100356.84;1615210;89;21222;-79
2022/10/23 02:50:31;;;;;;;5.45;3.62;;;;;;;12.52;83.52;100353.56;1612600;89;20228;-79
2022/10/23 02:53:48;;;;;;;7.05;4.40;;;;;;;12.64;83.26;100353.09;1611638;88;21305;-79
2022/10/23 02:57:34;;;;;;;9.38;4.33;;;;;;;12.34;84.39;100352.22;1611471;89;21237;-79
2022/10/23 03:00:40;;;;;;;8.25;4.08;;;;;;;12.46;84.09;100346.59;1611481;89;21294;-79
2022/10/23 03:03:51;;;;;;;7.12;3.80;;;;;;;12.27;84.80;100346.09;1611531;89;21237;-79
2022/10/23 03:06:57;;;;;;;9.38;3.98;;;;;;;12.18;85.28;100340.88;1612594;89;21237;-79
2022/10/23 03:10:04;;;;;;;10.20;3.98;;;;;;;12.34;84.67;100342.09;1611690;88;21812;-79
2022/10/23 03:13:09;;;;;;;5.90;3.67;;;;;;;12.36;84.71;100341.90;1611895;89;21268;-79
2022/10/23 03:16:16;;;;;;;4.33;3.17;;;;;;;12.36;85.00;100340.01;1612720;89;21233;-79
2022/10/23 03:19:21;;;;;;;11.48;3.80;;;;;;;12.33;84.95;100343.14;1611484;89;21408;-79
2022/10/23 03:22:27;;;;;;;4.25;2.85;;;;;;;12.39;84.60;100336.90;1612464;89;21285;-79
2022/10/23 03:25:33;;;;;;;5.08;3.52;;;;;;;12.24;85.31;100334.66;1611603;88;21272;-79
2022/10/23 03:28:40;;;;;;;8.35;3.30;;;;;;;12.28;85.56;100331.88;1587058;90;21297;-79
2022/10/23 03:31:47;;;;;;;8.00;3.90;;;;;;;12.37;85.20;100324.40;1612556;89;21237;-79
2022/10/23 03:34:53;;;;;;;6.08;3.33;;;;;;;12.37;85.40;100317.02;1612701;89;22475;-79
2022/10/23 03:37:58;;;;;;;6.83;3.58;;;;;;;12.36;85.20;100318.06;1612645;89;21237;-79
2022/10/23 03:41:04;;;;;;;5.28;2.60;;;;;;;12.43;85.43;100313.55;1611568;88;21828;-79
2022/10/23 03:44:10;;;;;;;6.00;3.50;;;;;;;12.24;85.86;100303.97;1611420;89;21784;-79
2022/10/23 03:47:16;;;;;;;5.28;3.15;;;;;;;12.25;85.97;100299.34;1611421;89;21236;-79
2022/10/23 03:50:23;;;;;;;6.50;3.30;;;;;;;12.29;85.90;100292.45;1612567;89;21229;-79
2022/10/23 03:53:29;;;;;;;3.92;2.95;;;;;;;12.57;84.83;100289.05;1611428;89;21339;-79
2022/10/23 03:56:35;;;;;;;4.15;2.70;;;;;;;12.63;84.36;100286.91;1612597;89;21879;-79
2022/10/23 03:59:40;;;;;;;4.65;2.40;;;;;;;12.46;84.80;100283.49;1612563;89;21237;-78
2022/10/23 04:02:47;;;;;;;3.87;2.52;;;;;;;12.63;84.65;100275.41;1612600;89;21229;-78
2022/10/23 04:05:53;;;;;;;8.83;3.42;;;;;;;12.54;84.52;100275.17;1611414;89;21280;-78
2022/10/23 04:08:59;;;;;;;3.12;2.37;;;;;;;12.87;83.55;100275.61;1609051;89;21273;-78
2022/10/23 04:12:05;;;;;;;5.20;2.50;;;;;;;12.67;83.78;100275.89;1612550;89;21335;-78
2022/10/23 04:15:10;;;;;;;7.42;2.45;;;;;;;12.83;83.26;100272.91;1611369;89;21241;-78
2022/10/23 04:18:16;;;;;;;4.78;2.62;;;;;;;12.96;82.46;100270.34;1612545;89;21221;-78
2022/10/23 04:21:22;;;;;;;6.60;2.70;;;;;;;13.17;81.64;100263.17;1612530;89;21221;-81
2022/10/23 04:24:28;;;;;;;3.85;2.45;;;;;;;13.17;81.13;100264.55;1611449;89;21237;-81
2022/10/23 04:27:36;;;;;;;6.10;2.30;;;;;;;12.98;81.77;100261.91;1611364;89;21312;-78
2022/10/23 04:30:43;;;;;;;3.08;2.25;;;;;;;13.16;81.64;100255.98;1611429;89;21249;-78
2022/10/23 04:33:50;;;;;;;6.45;2.47;;;;;;;13.17;81.34;100248.06;1612169;89;21309;-78
2022/10/23 04:36:55;;;;;;;5.40;2.60;;;;;;;13.21;81.20;100248.86;1612547;89;21237;-78
2022/10/23 04:40:02;;;;;;;3.52;2.15;;;;;;;13.25;81.10;100242.48;1612469;89;21209;-78
2022/10/23 04:43:07;;;;;;;7.28;2.58;;;;;;;12.99;82.19;100237.55;1612551;89;21229;-81
2022/10/23 04:46:07;;;;;;;4.65;2.37;;;;;;;13.04;82.17;100235.06;1612557;89;21852;-81
2022/10/23 04:49:15;;;;;;;5.20;2.40;;;;;;;12.90;82.31;100235.44;1612763;89;21233;-79
2022/10/23 04:52:38;;;;;;;8.18;2.45;;;;;;;12.76;83.65;100234.95;1532325;93;21272;-79
2022/10/23 04:55:46;;;;;;;9.30;2.60;;;;;;;12.82;83.49;100226.45;1586165;89;21269;-79
2022/10/23 04:59:00;;;;;;;8.63;2.35;;;;;;;12.89;83.20;100232.37;1587054;90;21256;-79
2022/10/23 05:02:05;;;;;;;4.75;2.00;;;;;;;12.74;83.57;100234.27;1612601;89;21813;-79
2022/10/23 05:05:13;;;;;;;2.72;1.67;;;;;;;13.06;82.62;100227.47;1611742;89;21237;-79
2022/10/23 05:08:27;;;;;;;5.90;1.85;;;;;;;13.34;81.26;100229.48;1612579;89;21229;-79
2022/10/23 05:11:52;;;;;;;7.85;1.80;;;;;;;13.18;81.13;100227.82;1611829;88;21273;-79
2022/10/23 05:15:00;;;;;;;5.95;1.90;;;;;;;13.21;81.15;100237.02;1611376;89;21820;-79
2022/10/23 05:18:14;;;;;;;4.35;2.15;;;;;;;13.32;81.05;100226.09;1611399;89;21240;-79
2022/10/23 05:21:25;;;;;;;4.10;1.85;;;;;;;13.46;80.36;100233.42;1611414;89;21233;-79
2022/10/23 05:24:31;;;;;;;;;;;;;;;13.72;79.48;100236.91;1614816;89;21218;-79
2022/10/23 05:27:37;;;;;;;2.25;1.50;;;;;;;13.64;79.32;100235.67;1611897;88;20212;-79
2022/10/23 05:30:45;;;;;;;3.27;1.65;;;;;;;13.35;80.40;100236.67;1614418;89;21241;-78
2022/10/23 05:33:52;;;;;;;4.17;2.10;;;;;;;13.35;80.52;100235.30;1613190;89;21237;-78
2022/10/23 05:36:58;;;;;;;8.00;1.90;;;;;;;13.69;79.51;100237.30;1614417;89;21763;-78
2022/10/23 05:40:05;;;;;;;2.55;1.80;;;;;;;13.77;79.07;100238.01;1614365;89;21229;-78
2022/10/23 05:43:13;;;;;;;3.72;2.02;;;;;;;13.62;79.42;100237.25;1613296;88;21296;-78
2022/10/23 05:46:22;;;;;;;6.75;2.20;;;;;;;13.41;80.21;100239.50;1597788;89;21261;-78
2022/10/23 05:49:45;;;;;;;3.98;1.72;;;;;;;13.39;80.61;100236.61;1538024;93;21265;-78
2022/10/23 05:53:08;;;;;;;3.30;2.05;;;;;;;13.46;80.48;100235.64;1594735;90;21875;-78
2022/10/23 05:56:24;;;;;;;7.70;1.85;;;;;;;13.66;79.74;100234.97;1561137;90;21463;-78
2022/10/23 05:59:33;;;;;;;2.42;1.98;;;;;;;13.78;79.30;100236.11;1593532;90;21212;-78
2022/10/23 06:02:41;;;;;;;4.70;1.98;;;;;;;13.90;78.72;100232.30;1594987;90;21220;-78
2022/10/23 06:05:52;;;;;;;6.20;1.90;;;;;;;13.88;78.50;100234.38;1613778;89;21241;-78
2022/10/23 06:09:00;;;;;;;6.92;2.42;;;;;;;14.06;77.78;100233.36;1614851;89;21879;-78
2022/10/23 06:12:08;;;;;;;3.92;1.85;;;;;;;14.17;77.14;100227.84;1614684;88;21260;-78
2022/10/23 06:15:15;;;;;;;3.58;1.82;;;;;;;14.21;76.96;100230.49;1613729;89;21860;-78
2022/10/23 06:18:23;;;;;;;4.87;2.08;;;;;;;14.26;76.75;100235.73;1613714;89;21240;-78
2022/10/23 06:21:31;;;;;;;6.50;2.25;;;;;;;14.33;76.54;100239.36;1614677;89;21796;-78
2022/10/23 06:24:38;;;;;;;6.53;2.10;;;;;;;14.39;76.42;100232.72;1614768;89;21221;-78
2022/10/23 06:27:46;;;;;;;6.78;2.72;;;;;;;14.40;76.22;100233.92;1614317;88;21264;-78
2022/10/23 06:30:52;;;;;;;8.90;2.67;;;;;;;14.42;76.17;100223.54;1614763;89;21782;-78
2022/10/23 06:33:58;;;;;;;6.90;2.60;;;;;;;14.47;76.18;100234.78;1614727;89;21231;-78
2022/10/23 06:37:04;;;;;;;6.20;2.15;;;;;;;14.50;76.05;100232.20;1614496;89;21816;-78
2022/10/23 06:40:13;;;;;;;4.67;2.40;;;;;;;14.68;75.54;100230.25;1614497;89;21788;-78
2022/10/23 06:43:21;;;;;;;5.00;2.20;;;;;;;14.35;76.35;100226.80;1615438;88;21273;-77
2022/10/23 06:46:33;;;;;;;6.33;2.00;;;;;;;14.36;76.63;100228.49;1612267;89;21213;-78
2022/10/23 06:49:39;;;;;;;4.42;2.40;;;;;;;14.42;76.50;100222.70;1615427;89;21234;-78
2022/10/23 06:52:44;;;;;;;3.90;2.20;;;;;;;14.59;76.12;100228.23;1613270;89;21245;-78
2022/10/23 06:55:52;;;;;;;4.75;2.70;;;;;;;14.62;75.68;100220.91;1614004;89;21322;-78
2022/10/23 07:02:13;;;;;;;6.25;2.90;;;;;;;14.70;76.21;100208.36;1635341;87;21582;-78
2022/10/23 07:05:18;;;;;;;5.90;3.40;;;;;;;14.76;76.05;100213.56;1636523;87;21226;-78
2022/10/23 07:08:24;;;;;;;5.55;2.30;;;;;;;14.85;75.98;100206.81;1636723;87;21245;-78
2022/10/23 07:11:32;;;;;;;4.00;1.98;;;;;;;14.92;75.90;100204.95;1608492;89;21831;-78
2022/10/23 07:14:39;;;;;;;3.62;1.95;;;;;;;14.88;76.30;100198.16;1610284;89;21233;-77
2022/10/23 07:17:46;;;;;;;5.45;2.25;;;;;;;14.49;77.79;100192.83;1610372;89;21221;-78
2022/10/23 07:20:55;;;;;;;2.85;1.67;;;;;;;14.29;78.87;100191.82;1610436;89;21225;-81
2022/10/23 07:24:01;;;;;;;4.30;1.95;;;;;;;14.40;78.82;100187.14;1610389;89;21233;-80
2022/10/23 07:27:06;;;;;;;4.55;2.25;;;;;;;14.24;79.60;100185.55;1609450;89;21245;-81
2022/10/23 07:30:15;;;;;;;3.52;2.15;;;;;;;14.09;80.37;100181.24;1610086;89;21273;-78
2022/10/23 07:33:22;;;;;;;4.50;2.12;;;;;;;13.99;81.16;100179.70;1610249;89;21225;-78
2022/10/23 07:36:24;;;;;;;4.65;1.90;;;;;;;13.92;81.62;100167.80;1609759;89;21274;-78
2022/10/23 07:39:29;;;;;;;3.52;2.02;;;;;;;13.88;82.09;100167.91;1610120;89;21218;-78
2022/10/23 07:42:35;;;;;;;5.22;2.12;;;;;;;14.04;82.08;100159.31;1609478;89;21309;-78
2022/10/23 07:45:42;;;;;;;5.03;2.33;;;;;;;13.99;82.36;100159.08;1609466;89;21339;-78
2022/10/23 07:48:50;;;;;;;6.12;2.37;;;;;;;14.04;81.97;100152.45;1609983;89;21249;-78
2022/10/23 07:51:57;;;;;;;4.45;2.02;;;;;;;13.94;81.52;100153.34;1609291;89;21330;-80
2022/10/23 07:55:05;;;;;;;4.58;2.27;;;;;;;14.10;80.46;100148.55;1605008;88;21256;-80
2022/10/23 07:58:15;;;;;;;3.17;1.90;;;;;;;13.93;81.05;100146.15;1609574;89;21249;-81
2022/10/23 08:01:31;;;;;;;4.42;2.33;;;;;;;14.03;80.70;100142.50;1609787;88;22024;-79
2022/10/23 08:04:38;;;;;;;4.75;2.60;;;;;;;14.09;80.15;100133.11;1614030;89;21253;-79
2022/10/23 08:07:51;;;;;;;3.50;2.27;;;;;;;14.21;78.94;100125.96;1597043;89;21261;-79
2022/10/23 08:10:58;;;;;;;7.97;2.70;;;;;;;14.08;79.02;100119.05;1612443;87;21253;-78
2022/10/23 08:13:54;;;;;;;8.20;2.20;;;;;;;14.22;78.63;100119.43;1614213;89;21237;-78
2022/10/23 08:17:03;;;;;;;6.00;1.80;;;;;;;14.19;78.90;100119.83;1613598;89;21815;-78
2022/10/23 08:20:28;;;;;;;5.97;2.15;;;;;;;14.25;79.15;100106.62;1614378;89;21289;-78
2022/10/23 08:23:34;;;;;;;6.25;1.98;;;;;;;14.24;79.93;100106.31;1614327;89;21233;-78
2022/10/23 08:26:40;;;;;;;2.62;1.95;;;;;;;14.32;80.07;100102.86;1614185;89;21237;-78
2022/10/23 08:29:46;;;;;;;3.75;1.92;;;;;;;14.42;80.39;100098.87;1614378;89;21233;-78
2022/10/23 08:32:52;;;;;;;5.05;2.02;;;;;;;14.65;79.15;100090.30;1613271;89;21268;-78
2022/10/23 08:35:58;;;;;;;5.62;2.17;;;;;;;14.71;78.38;100094.95;1614348;89;21236;-78
2022/10/23 08:39:04;;;;;;;3.27;1.92;;;;;;;14.71;77.81;100089.45;1614333;89;21234;-78
2022/10/23 08:42:10;;;;;;;2.33;1.60;;;;;;;14.65;77.31;100076.53;1612635;89;21851;-78
2022/10/23 08:45:40;;;;;;;3.98;1.60;;;;;;;14.68;75.99;100073.34;1614357;89;21233;-78
2022/10/23 08:49:01;;;;;;;3.02;1.60;;;;;;;14.68;74.96;100067.83;1612698;89;21233;-78
2022/10/23 08:52:11;;;;;;;;;;;;;;;14.65;74.21;100070.49;1616866;89;21376;-78
2022/10/23 08:55:26;;;;;;;2.47;1.15;;;;;;;14.65;73.54;100068.27;1613195;89;20211;-78
2022/10/23 08:58:45;;;;;;;2.05;1.15;;;;;;;14.53;73.23;100067.48;1613607;89;21292;-78
2022/10/23 09:01:59;;;;;;;3.12;1.27;;;;;;;14.41;72.52;100062.78;1614108;89;21271;-78
2022/10/23 09:05:04;;;;;;;3.45;1.22;;;;;;;14.38;71.85;100059.91;1591388;89;21809;-78
2022/10/23 09:08:41;;;;;;;3.05;1.40;;;;;;;14.30;71.63;100053.20;1613790;89;21233;-78
2022/10/23 09:12:14;;;;;;;4.20;1.65;;;;;;;14.06;71.75;100049.95;1613367;89;21217;-78
2022/10/23 09:15:40;;;;;;;2.95;1.42;;;;;;;14.04;71.67;100049.31;1614607;89;21217;-78
2022/10/23 09:18:47;;;;;;;3.25;1.25;;;;;;;13.91;71.89;100037.41;1613122;89;21261;-78
2022/10/23 09:21:56;;;;;;;2.27;1.60;;;;;;;13.94;71.67;100028.77;1613230;88;21229;-78
2022/10/23 09:25:01;;;;;;;3.52;1.50;;;;;;;14.14;71.18;100021.95;1614486;89;21815;-78
2022/10/23 09:28:07;;;;;;;2.70;1.22;;;;;;;14.27;71.10;100017.34;1613976;89;21233;-78
2022/10/23 09:31:17;;;;;;;3.95;1.70;;;;;;;14.43;70.93;100013.35;1614402;89;21285;-78
2022/10/23 09:34:22;;;;;;;6.10;1.47;;;;;;;14.27;71.70;100013.75;1614426;89;21237;-78
2022/10/23 09:37:30;;;;;;;3.50;1.80;;;;;;;14.10;73.12;100009.67;1614901;89;21309;-78
2022/10/23 09:40:39;;;;;;;3.50;1.90;;;;;;;14.08;73.63;100004.91;1608988;89;21225;-78
2022/10/23 09:43:44;;;;;;;6.95;1.98;;;;;;;13.98;75.33;99999.28;1614454;89;21234;-78
2022/10/23 09:46:59;;;;;;;3.98;1.90;;;;;;;14.14;76.18;99998.58;1614432;89;21281;-78
2022/10/23 09:50:06;;;;;;;5.85;1.70;;;;;;;14.25;76.92;99995.21;1614392;89;21213;-78
2022/10/23 09:53:12;;;;;;;4.17;2.10;;;;;;;14.36;78.32;99986.90;1613262;89;21233;-78
2022/10/23 09:56:14;;;;;;;;;;;;;;;14.43;78.57;99976.20;1616849;89;21277;-78
2022/10/23 09:59:25;;;;;;;6.20;2.22;;;;;;;14.54;79.19;99977.02;1613448;89;20224;-78
2022/10/23 10:02:36;;;;;;;5.65;2.00;;;;;;;15.05;78.61;99970.84;1614435;89;21268;-78
2022/10/23 10:05:45;;;;;;;6.12;2.40;;;;;;;14.76;80.13;99965.78;1615326;89;21771;-78
2022/10/23 10:08:56;;;;;;;8.80;2.90;;;;;;;14.83;80.62;99957.00;1614256;89;21801;-78
2022/10/23 10:12:32;;;;;;;8.48;2.70;;;;;;;14.88;81.24;99953.61;1615418;89;21276;-78
2022/10/23 10:16:01;;;;;;;5.78;2.75;;;;;;;14.85;81.92;99951.27;1615323;89;21216;-78
2022/10/23 10:19:30;;;;;;;11.88;3.17;;;;;;;14.73;82.96;99936.78;1614537;89;21303;-78
2022/10/23 10:23:01;;;;;;;12.33;4.00;;;;;;;14.69;83.84;99930.54;1615489;89;21243;-78
2022/10/23 10:26:19;;;;;;;11.53;5.05;;;;;;;14.73;84.61;99922.18;1615274;89;21232;-79
2022/10/23 10:29:37;;;;;;;8.65;4.10;;;;;;;14.60;86.35;99918.89;1614691;89;21220;-78
2022/10/23 10:33:08;;;;;;;16.75;5.40;;;;;;;14.70;86.47;99906.08;1615819;89;21232;-78
2022/10/23 10:36:27;;;;;;;7.62;2.90;;;;;;;14.86;85.39;99903.40;1615447;89;21232;-78
2022/10/23 10:40:19;;;;;;;10.78;4.40;;;;;;;14.58;85.24;99890.72;1614425;89;21814;-78
2022/10/23 10:43:45;;;;;;;10.23;4.10;;;;;;;14.77;87.14;99890.38;1615458;89;21628;-79
2022/10/23 10:47:07;;;;;;;11.90;3.70;;;;;;;14.49;88.54;99874.98;1614819;89;21846;-79
2022/10/23 10:50:32;;;;;;;10.95;4.05;;;;;;;14.48;88.47;99866.38;1614653;89;21247;-79
2022/10/23 10:54:16;;;;;;;31.97;11.03;;;;;;;14.52;89.23;99855.80;1615714;89;21249;-79
2022/10/23 10:57:40;;;;;;;32.60;12.63;;;;;;;14.66;88.86;99842.34;1615872;89;21779;-79
2022/10/23 11:00:45;;;;;;;8.33;3.80;;;;;;;14.70;88.75;99838.10;1589125;89;21486;-79
2022/10/23 11:04:03;;;;;;;11.18;4.17;;;;;;;14.74;88.84;99833.86;1614624;88;21267;-79
2022/10/23 11:07:14;;;;;;;12.90;3.77;;;;;;;14.77;88.66;99821.55;1611755;89;21241;-79
2022/10/23 11:10:25;;;;;;;7.03;3.60;;;;;;;14.47;90.00;99817.88;1612151;89;21893;-79
2022/10/23 11:13:43;;;;;;;14.07;3.40;;;;;;;14.46;90.48;99805.19;1611405;89;21232;-79
2022/10/23 11:16:52;;;;;;;5.10;2.85;;;;;;;14.27;90.04;99815.69;1611487;87;21283;-79
2022/10/23 11:20:24;;;;;;;9.55;3.17;;;;;;;14.36;90.71;99815.79;1611896;89;21305;-79
2022/10/23 11:23:51;;;;;;;8.95;3.30;;;;;;;14.14;91.64;99808.80;1612675;89;21213;-79
2022/10/23 11:27:36;;;;;;;6.37;3.15;;;;;;;14.28;91.69;99790.70;1612638;89;21233;-79
2022/10/23 11:31:17;;;;;;;7.58;3.30;;;;;;;14.16;91.67;99790.17;1611463;89;21236;-79
2022/10/23 11:35:03;;;;;;;9.10;2.98;;;;;;;14.23;91.40;99797.38;1611699;89;21249;-79
2022/10/23 11:38:21;;;;;;;7.30;2.98;;;;;;;14.24;90.40;99785.84;1607740;89;21307;-79
2022/10/23 11:41:34;;;;;;;5.28;2.62;;;;;;;14.33;89.03;99774.94;1612655;89;21217;-78
2022/10/23 11:44:50;;;;;;;8.45;3.27;;;;;;;14.11;89.16;99778.44;1612588;89;21273;-78
2022/10/23 11:48:10;;;;;;;11.88;3.90;;;;;;;14.01;88.90;99777.48;1611412;88;21256;-78
2022/10/23 11:51:42;;;;;;;7.07;2.80;;;;;;;14.10;88.80;99780.03;1611616;89;21316;-78
2022/10/23 11:54:47;;;;;;;5.28;2.52;;;;;;;14.06;88.05;99769.45;1611428;89;21244;-78
2022/10/23 11:58:12;;;;;;;6.70;2.77;;;;;;;13.75;89.05;99772.00;1612623;89;22525;-78
2022/10/23 12:01:44;;;;;;;6.75;3.25;;;;;;;13.87;89.42;99774.42;1612589;89;21804;-78
2022/10/23 12:04:56;;;;;;;10.82;3.00;;;;;;;13.70;89.27;99766.28;1612278;89;21261;-79
2022/10/23 12:08:05;;;;;;;4.87;2.50;;;;;;;13.77;89.13;99756.13;1612581;89;21233;-79
2022/10/23 12:11:11;;;;;;;4.70;2.50;;;;;;;13.64;89.81;99759.70;1612065;89;21760;-79
2022/10/23 12:14:39;;;;;;;11.05;3.72;;;;;;;13.72;89.03;99749.89;1611456;89;21286;-79
2022/10/23 12:17:46;;;;;;;3.55;2.58;;;;;;;13.27;90.50;99747.41;1611570;89;21241;-78
2022/10/23 12:21:03;;;;;;;7.42;2.72;;;;;;;13.16;91.89;99741.94;1611764;89;21871;-78
2022/10/23 12:24:25;;;;;;;8.48;2.95;;;;;;;13.89;88.44;99751.70;1612594;89;21228;-78
2022/10/23 12:27:55;;;;;;;6.85;3.20;;;;;;;13.47;89.07;99739.20;1612590;89;21238;-78
2022/10/23 12:31:17;;;;;;;4.87;2.83;;;;;;;13.57;89.21;99747.03;1596656;89;21337;-79
2022/10/23 12:34:36;;;;;;;6.90;2.72;;;;;;;13.29;90.49;99738.41;1612647;89;21210;-79
2022/10/23 12:38:17;;;;;;;5.60;3.13;;;;;;;13.21;90.75;99739.94;1612898;89;21858;-78
2022/10/23 12:41:33;;;;;;;9.60;4.25;;;;;;;12.93;92.10;99730.45;1611612;89;21273;-79
2022/10/23 12:44:38;;;;;;;9.45;3.37;;;;;;;13.00;91.97;99727.22;1612709;89;21551;-79
2022/10/23 12:47:43;;;;;;;5.53;3.22;;;;;;;13.08;91.91;99726.17;1612737;89;21780;-78
2022/10/23 12:50:49;;;;;;;5.62;3.33;;;;;;;13.35;90.78;99721.09;1593015;89;21261;-78
2022/10/23 12:53:56;;;;;;;9.25;3.27;;;;;;;13.24;90.79;99714.33;1578456;89;21221;-78
2022/10/23 12:57:02;;;;;;;5.95;3.62;;;;;;;13.20;91.17;99715.75;1612524;89;21233;-78
2022/10/23 13:00:14;;;;;;;7.95;3.60;;;;;;;13.10;92.06;99711.20;1612459;89;21253;-79
2022/10/23 13:03:20;;;;;;;8.63;3.92;;;;;;;13.09;92.46;99709.51;1612631;89;21847;-79
2022/10/23 13:06:28;;;;;;;9.18;4.37;;;;;;;13.09;93.16;99711.41;1612442;89;21383;-79
2022/10/23 13:09:44;;;;;;;6.90;3.62;;;;;;;12.97;93.48;99707.88;1614026;89;21284;-78
2022/10/23 13:13:03;;;;;;;6.83;3.87;;;;;;;12.86;94.71;99703.00;1613247;87;21244;-79
2022/10/23 13:16:12;;;;;;;6.20;3.70;;;;;;;12.97;94.91;99703.76;1614441;89;21233;-78
2022/10/23 13:19:31;;;;;;;6.45;3.10;;;;;;;12.95;94.67;99705.88;1583457;89;21348;-78
2022/10/23 13:22:40;;;;;;;6.62;3.85;;;;;;;12.74;96.19;99704.09;1614647;89;21320;-78
2022/10/23 13:25:46;;;;;;;7.33;3.87;;;;;;;12.97;95.81;99698.80;1614554;89;21225;-81
2022/10/23 13:28:53;;;;;;;5.85;3.92;;;;;;;13.01;95.74;99696.80;1614734;89;21229;-81
2022/10/23 13:32:00;;;;;;;6.20;3.95;;;;;;;12.89;96.55;99700.34;1613475;89;21253;-78
2022/10/23 13:35:07;;;;;;;6.80;4.12;;;;;;;13.01;96.74;99707.79;1614512;89;21261;-78
2022/10/23 13:38:16;;;;;;;5.70;3.37;;;;;;;12.89;96.09;99698.48;1614539;89;21274;-78
2022/10/23 13:41:24;;;;;;;6.37;3.10;;;;;;;12.96;95.93;99697.11;1614140;89;21253;-78
2022/10/23 13:44:32;;;;;;;8.00;3.37;;;;;;;13.21;94.42;99690.51;1614768;89;21231;-78
2022/10/23 13:47:37;;;;;;;6.95;3.40;;;;;;;13.62;92.13;99693.12;1614549;89;21228;-78
2022/10/23 13:50:44;;;;;;;6.58;2.98;;;;;;;13.45;91.03;99694.05;1614314;89;21253;-78
2022/10/23 13:53:50;;;;;;;8.73;3.22;;;;;;;13.22;92.90;99693.10;1614477;89;21230;-78
2022/10/23 13:56:55;;;;;;;4.05;2.95;;;;;;;13.20;92.71;99690.20;1613290;89;21546;-78
2022/10/23 14:00:00;;;;;;;6.12;3.52;;;;;;;13.25;92.56;99690.45;1614459;89;21214;-78
2022/10/23 14:03:06;;;;;;;7.47;3.25;;;;;;;13.29;92.72;99678.00;1614474;89;21339;-78
2022/10/23 14:06:11;;;;;;;5.17;3.12;;;;;;;13.47;91.92;99685.09;1614554;89;21221;-77
2022/10/23 14:09:21;;;;;;;5.22;2.47;;;;;;;13.74;90.46;99677.70;1613108;89;21245;-78
2022/10/23 14:12:28;;;;;;;4.05;2.33;;;;;;;13.70;90.11;99678.34;1613470;89;21252;-78
2022/10/23 14:15:35;;;;;;;3.12;2.08;;;;;;;13.61;89.70;99677.70;1614559;89;21233;-78
2022/10/23 14:18:42;;;;;;;7.30;2.65;;;;;;;13.38;90.18;99679.48;1614629;89;21214;-78
2022/10/23 14:21:48;;;;;;;3.85;2.10;;;;;;;12.74;93.03;99676.66;1614084;89;21324;-78
2022/10/23 14:24:55;;;;;;;9.95;2.30;;;;;;;12.77;93.49;99678.16;1614596;89;21293;-78
2022/10/23 14:28:01;;;;;;;4.10;2.40;;;;;;;12.68;93.66;99678.86;1614767;89;21237;-78
2022/10/23 14:31:15;;;;;;;4.60;2.75;;;;;;;12.83;93.19;99674.58;1614507;89;21213;-78
2022/10/23 14:34:20;;;;;;;3.47;2.65;;;;;;;13.02;91.69;99668.29;1613407;89;21293;-79
2022/10/23 14:37:27;;;;;;;4.55;2.67;;;;;;;12.75;92.29;99663.78;1614478;89;21276;-78
2022/10/23 14:40:33;;;;;;;6.00;3.08;;;;;;;12.89;91.76;99666.03;1614555;89;21237;-79
2022/10/23 14:43:41;;;;;;;3.60;2.67;;;;;;;12.91;91.61;99663.95;1614544;89;21285;-79
2022/10/23 14:46:48;;;;;;;5.15;3.12;;;;;;;12.88;91.08;99654.75;1614495;89;21218;-79
2022/10/23 14:49:57;;;;;;;3.85;2.85;;;;;;;12.80;91.57;99653.06;1614638;89;21278;-79
2022/10/23 14:53:02;;;;;;;6.40;3.72;;;;;;;12.77;91.85;99646.59;1596685;89;21269;-79
2022/10/23 14:56:11;;;;;;;9.13;3.65;;;;;;;13.04;90.89;99649.73;1614462;89;21237;-79
2022/10/23 14:59:17;;;;;;;5.65;3.62;;;;;;;12.88;91.00;99648.73;1614511;89;21237;-79